createdAt,value
2016-06-09T00:00:22.142Z,18.58
2016-06-09T00:01:22.255Z,18.46
2016-06-09T00:02:22.242Z,18.44
2016-06-09T00:03:22.136Z,18.52
2016-06-09T00:04:22.358Z,18.49
2016-06-09T00:05:22.408Z,18.43
2016-06-09T00:06:22.332Z,18.47
2016-06-09T00:07:22.445Z,18.49
2016-06-09T00:08:22.496Z,18.55
2016-06-09T00:09:22.545Z,18.55
2016-06-09T00:10:22.377Z,18.47
2016-06-09T00:11:22.566Z,18.49
2016-06-09T00:12:22.429Z,18.5
2016-06-09T00:13:22.697Z,18.46
2016-06-09T00:14:22.341Z,18.49
2016-06-09T00:15:22.375Z,18.42
2016-06-09T00:16:22.472Z,18.49
2016-06-09T00:17:22.460Z,18.47
2016-06-09T00:18:22.509Z,18.47
2016-06-09T00:19:22.591Z,18.4
2016-06-09T00:20:22.610Z,18.42
2016-06-09T00:21:22.644Z,18.39
2016-06-09T00:22:22.897Z,18.42
2016-06-09T00:23:22.760Z,18.43
2016-06-09T00:24:22.762Z,18.44
2016-06-09T00:25:22.797Z,18.4
2016-06-09T00:26:22.879Z,18.33
2016-06-09T00:27:22.913Z,18.34
2016-06-09T00:28:22.916Z,18.39
2016-06-09T00:29:22.965Z,18.4
2016-06-09T00:30:23.016Z,18.4
2016-06-09T00:31:23.097Z,18.36
2016-06-09T00:32:23.084Z,18.34
2016-06-09T00:33:23.103Z,18.33
2016-06-09T00:34:23.215Z,18.37
2016-06-09T00:35:23.219Z,18.39
2016-06-09T00:36:23.268Z,18.34
2016-06-09T00:37:23.302Z,18.4
2016-06-09T00:38:23.385Z,18.33
2016-06-09T00:39:23.418Z,18.31
2016-06-09T00:40:23.436Z,18.33
2016-06-09T00:41:23.487Z,18.28
2016-06-09T00:42:23.522Z,18.24
2016-06-09T00:43:23.399Z,18.33
2016-06-09T00:44:23.606Z,18.34
2016-06-09T00:45:23.686Z,18.22
2016-06-09T00:46:23.705Z,18.33
2016-06-09T00:47:23.724Z,18.31
2016-06-09T00:48:24.383Z,18.29
2016-06-09T00:49:25.371Z,18.37
2016-06-09T00:50:23.858Z,18.37
2016-06-09T00:51:23.893Z,18.28
2016-06-09T00:52:23.942Z,18.31
2016-06-09T00:53:23.977Z,18.29
2016-06-09T00:54:24.027Z,18.29
2016-06-09T00:55:24.076Z,18.29
2016-06-09T00:56:24.142Z,18.29
2016-06-09T00:57:24.146Z,18.27
2016-06-09T00:58:24.196Z,18.21
2016-06-09T00:59:24.245Z,18.24
2016-06-09T01:00:24.280Z,18.21
2016-06-09T01:01:24.345Z,18.21
2016-06-09T01:02:24.364Z,18.27
2016-06-09T01:03:25.507Z,18.24
2016-06-09T01:04:25.057Z,18.22
2016-06-09T01:05:24.499Z,18.28
2016-06-09T01:06:24.548Z,18.27
2016-06-09T01:07:24.629Z,18.19
2016-06-09T01:08:24.632Z,18.27
2016-06-09T01:09:24.651Z,18.25
2016-06-09T01:10:24.717Z,18.22
2016-06-09T01:11:24.751Z,18.25
2016-06-09T01:12:24.785Z,18.22
2016-06-09T01:13:24.820Z,18.24
2016-06-09T01:14:24.901Z,18.21
2016-06-09T01:15:24.919Z,18.18
2016-06-09T01:16:24.954Z,18.21
2016-06-09T01:17:25.035Z,18.19
2016-06-09T01:18:25.070Z,18.12
2016-06-09T01:19:25.556Z,18.21
2016-06-09T01:20:25.122Z,18.22
2016-06-09T01:21:25.204Z,18.21
2016-06-09T01:22:25.207Z,18.17
2016-06-09T01:23:25.240Z,18.17
2016-06-09T01:24:25.291Z,18.17
2016-06-09T01:25:25.372Z,18.17
2016-06-09T01:26:25.375Z,18.13
2016-06-09T01:27:25.424Z,18.15
2016-06-09T01:28:25.459Z,18.18
2016-06-09T01:29:25.510Z,18.15
2016-06-09T01:30:25.559Z,18.12
2016-06-09T01:31:25.593Z,18.06
2016-06-09T01:32:25.675Z,18.06
2016-06-09T01:33:27.054Z,18.03
2016-06-09T01:34:25.852Z,18
2016-06-09T01:35:25.793Z,17.99
2016-06-09T01:36:25.797Z,18.04
2016-06-09T01:37:25.830Z,18.02
2016-06-09T01:38:25.881Z,18.07
2016-06-09T01:39:25.978Z,18.03
2016-06-09T01:40:25.965Z,18.02
2016-06-09T01:41:25.999Z,18.02
2016-06-09T01:42:26.081Z,18.09
2016-06-09T01:43:26.115Z,18.09
2016-06-09T01:44:26.133Z,18.07
2016-06-09T01:45:26.169Z,17.95
2016-06-09T01:46:26.264Z,17.97
2016-06-09T01:47:26.268Z,18.03
2016-06-09T01:48:26.990Z,17.94
2016-06-09T01:49:26.899Z,17.91
2016-06-09T01:50:26.387Z,18.04
2016-06-09T01:51:26.421Z,18
2016-06-09T01:52:26.487Z,17.99
2016-06-09T01:53:26.505Z,17.99
2016-06-09T01:54:26.601Z,17.92
2016-06-09T01:55:26.589Z,17.91
2016-06-09T01:56:26.624Z,17.91
2016-06-09T01:57:26.673Z,17.87
2016-06-09T01:58:26.723Z,17.81
2016-06-09T01:59:26.759Z,17.85
2016-06-09T02:00:26.807Z,17.81
2016-06-09T02:01:26.889Z,17.81
2016-06-09T02:02:26.893Z,17.84
2016-06-09T02:03:26.771Z,17.79
2016-06-09T02:04:26.852Z,17.73
2016-06-09T02:05:27.042Z,17.76
2016-06-09T02:06:27.076Z,17.67
2016-06-09T02:07:27.861Z,17.63
2016-06-09T02:08:27.192Z,17.7
2016-06-09T02:09:27.179Z,17.67
2016-06-09T02:10:27.245Z,17.53
2016-06-09T02:11:27.295Z,17.51
2016-06-09T02:12:27.313Z,17.46
2016-06-09T02:13:27.208Z,17.41
2016-06-09T02:14:27.397Z,17.43
2016-06-09T02:15:27.464Z,17.4
2016-06-09T02:16:27.342Z,17.36
2016-06-09T02:17:27.517Z,17.4
2016-06-09T02:18:28.206Z,17.36
2016-06-09T02:19:27.773Z,17.35
2016-06-09T02:20:27.666Z,17.38
2016-06-09T02:21:27.684Z,17.3
2016-06-09T02:22:27.766Z,17.38
2016-06-09T02:23:27.753Z,17.33
2016-06-09T02:24:27.803Z,17.32
2016-06-09T02:25:27.869Z,17.25
2016-06-09T02:26:27.950Z,17.33
2016-06-09T02:27:27.937Z,17.2
2016-06-09T02:28:27.973Z,17.29
2016-06-09T02:29:28.022Z,17.33
2016-06-09T02:30:28.057Z,17.28
2016-06-09T02:31:28.091Z,17.29
2016-06-09T02:32:28.156Z,17.38
2016-06-09T02:33:28.706Z,17.33
2016-06-09T02:34:28.756Z,17.33
2016-06-09T02:35:28.259Z,17.26
2016-06-09T02:36:28.340Z,17.23
2016-06-09T02:37:28.375Z,17.15
2016-06-09T02:38:28.394Z,17.22
2016-06-09T02:39:28.443Z,17.22
2016-06-09T02:40:28.524Z,17.15
2016-06-09T02:41:28.513Z,17.23
2016-06-09T02:42:28.562Z,17.08
2016-06-09T02:43:28.627Z,17.17
2016-06-09T02:44:28.662Z,17.08
2016-06-09T02:45:28.680Z,17.08
2016-06-09T02:46:28.715Z,17.1
2016-06-09T02:47:28.796Z,17.06
2016-06-09T02:48:28.689Z,17.06
2016-06-09T02:49:28.693Z,17.1
2016-06-09T02:50:28.883Z,17.06
2016-06-09T02:51:28.964Z,17.06
2016-06-09T02:52:28.967Z,17.08
2016-06-09T02:53:29.017Z,17.11
2016-06-09T02:54:29.067Z,17.08
2016-06-09T02:55:29.102Z,17.17
2016-06-09T02:56:29.136Z,17.15
2016-06-09T02:57:29.217Z,17.1
2016-06-09T02:58:29.236Z,17.2
2016-06-09T02:59:29.271Z,17.23
2016-06-09T03:00:29.304Z,17.23
2016-06-09T03:01:29.355Z,17.15
2016-06-09T03:02:29.389Z,17.15
2016-06-09T03:03:29.439Z,17.22
2016-06-09T03:04:29.692Z,17.18
2016-06-09T03:05:29.540Z,17.17
2016-06-09T03:06:29.557Z,17.22
2016-06-09T03:07:29.592Z,17.2
2016-06-09T03:08:29.658Z,17.17
2016-06-09T03:09:29.677Z,17.15
2016-06-09T03:10:29.726Z,17.17
2016-06-09T03:11:29.776Z,17.08
2016-06-09T03:12:29.811Z,17.15
2016-06-09T03:13:29.845Z,17.1
2016-06-09T03:14:29.878Z,17.11
2016-06-09T03:15:29.929Z,17.04
2016-06-09T03:16:30.010Z,17.11
2016-06-09T03:17:30.013Z,17.03
2016-06-09T03:18:30.063Z,17.04
2016-06-09T03:19:30.019Z,17.1
2016-06-09T03:20:30.132Z,17.11
2016-06-09T03:21:30.181Z,17.04
2016-06-09T03:22:30.247Z,17.03
2016-06-09T03:23:30.266Z,16.98
2016-06-09T03:24:30.300Z,17.1
2016-06-09T03:25:30.335Z,17.08
2016-06-09T03:26:30.385Z,16.99
2016-06-09T03:27:30.434Z,17.04
2016-06-09T03:28:30.469Z,16.96
2016-06-09T03:29:30.535Z,16.95
2016-06-09T03:30:30.553Z,16.98
2016-06-09T03:31:30.587Z,17.06
2016-06-09T03:32:30.638Z,17.08
2016-06-09T03:33:30.687Z,17.04
2016-06-09T03:34:30.893Z,17.07
2016-06-09T03:35:30.757Z,17.11
2016-06-09T03:36:30.807Z,17.06
2016-06-09T03:37:30.855Z,16.99
2016-06-09T03:38:30.875Z,17.1
2016-06-09T03:39:30.941Z,17
2016-06-09T03:40:30.975Z,17.11
2016-06-09T03:41:31.024Z,17.07
2016-06-09T03:42:31.059Z,17.11
2016-06-09T03:43:31.093Z,16.99
2016-06-09T03:44:31.127Z,17.07
2016-06-09T03:45:31.177Z,17.08
2016-06-09T03:46:31.212Z,17.13
2016-06-09T03:47:31.293Z,17.13
2016-06-09T03:48:31.171Z,17.14
2016-06-09T03:49:31.222Z,17.17
2016-06-09T03:50:31.380Z,17.17
2016-06-09T03:51:31.461Z,17.22
2016-06-09T03:52:31.496Z,17.2
2016-06-09T03:53:31.515Z,17.29
2016-06-09T03:54:31.548Z,17.22
2016-06-09T03:55:31.599Z,17.33
2016-06-09T03:56:31.649Z,17.44
2016-06-09T03:57:31.667Z,17.4
2016-06-09T03:58:31.749Z,17.36
2016-06-09T03:59:31.783Z,17.36
2016-06-09T04:00:31.801Z,17.41
2016-06-09T04:01:31.836Z,17.46
2016-06-09T04:02:31.887Z,17.41
2016-06-09T04:03:31.921Z,17.54
2016-06-09T04:04:32.532Z,17.5
2016-06-09T04:05:32.005Z,17.46
2016-06-09T04:06:32.086Z,17.47
2016-06-09T04:07:32.089Z,17.63
2016-06-09T04:08:32.138Z,17.64
2016-06-09T04:09:32.204Z,17.62
2016-06-09T04:10:32.239Z,17.53
2016-06-09T04:11:32.257Z,17.57
2016-06-09T04:12:32.292Z,17.66
2016-06-09T04:13:32.388Z,17.71
2016-06-09T04:14:32.391Z,17.71
2016-06-09T04:15:32.427Z,17.74
2016-06-09T04:16:32.476Z,17.87
2016-06-09T04:17:32.557Z,17.84
2016-06-09T04:18:32.544Z,17.89
2016-06-09T04:19:33.579Z,17.92
2016-06-09T04:20:32.660Z,17.99
2016-06-09T04:21:32.678Z,17.84
2016-06-09T04:22:32.557Z,17.91
2016-06-09T04:23:32.747Z,17.91
2016-06-09T04:24:32.844Z,17.95
2016-06-09T04:25:32.832Z,18.02
2016-06-09T04:26:32.881Z,17.99
2016-06-09T04:27:32.931Z,18.03
2016-06-09T04:28:33.012Z,18.06
2016-06-09T04:29:33.016Z,18.04
2016-06-09T04:30:33.051Z,18.18
2016-06-09T04:31:33.116Z,18.18
2016-06-09T04:32:33.165Z,18.17
2016-06-09T04:33:33.185Z,18.17
2016-06-09T04:34:33.578Z,18.25
2016-06-09T04:35:33.362Z,18.28
2016-06-09T04:36:33.334Z,18.25
2016-06-09T04:37:33.353Z,18.36
2016-06-09T04:38:33.387Z,18.31
2016-06-09T04:39:33.437Z,18.36
2016-06-09T04:40:33.487Z,18.4
2016-06-09T04:41:33.506Z,18.34
2016-06-09T04:42:33.555Z,18.43
2016-06-09T04:43:33.653Z,18.39
2016-06-09T04:44:33.640Z,18.49
2016-06-09T04:45:33.674Z,18.5
2016-06-09T04:46:33.756Z,18.44
2016-06-09T04:47:33.790Z,18.54
2016-06-09T04:48:33.808Z,18.46
2016-06-09T04:49:34.265Z,18.59
2016-06-09T04:50:33.846Z,18.47
2016-06-09T04:51:33.943Z,18.44
2016-06-09T04:52:34.055Z,18.57
2016-06-09T04:53:34.043Z,18.61
2016-06-09T04:54:34.061Z,18.46
2016-06-09T04:55:34.236Z,18.49
2016-06-09T04:56:34.598Z,18.54
2016-06-09T04:57:34.196Z,18.61
2016-06-09T04:58:34.449Z,18.62
2016-06-09T04:59:34.264Z,18.55
2016-06-09T05:00:34.471Z,18.57
2016-06-09T05:01:34.349Z,18.62
2016-06-09T05:02:34.399Z,18.62
2016-06-09T05:03:34.995Z,18.62
2016-06-09T05:04:35.529Z,18.61
2016-06-09T05:05:34.892Z,18.59
2016-06-09T05:06:34.848Z,18.58
2016-06-09T05:07:35.211Z,18.59
2016-06-09T05:08:34.855Z,18.64
2016-06-09T05:09:34.717Z,18.62
2016-06-09T05:10:35.220Z,18.61
2016-06-09T05:11:34.770Z,18.52
2016-06-09T05:12:34.836Z,18.59
2016-06-09T05:13:34.854Z,18.57
2016-06-09T05:14:35.529Z,18.5
2016-06-09T05:15:35.001Z,18.55
2016-06-09T05:16:34.989Z,18.5
2016-06-09T05:17:35.023Z,18.57
2016-06-09T05:18:35.073Z,18.61
2016-06-09T05:19:35.716Z,18.65
2016-06-09T05:20:35.454Z,18.62
2016-06-09T05:21:35.238Z,18.68
2016-06-09T05:22:35.257Z,18.65
2016-06-09T05:23:35.322Z,18.64
2016-06-09T05:24:35.653Z,18.76
2016-06-09T05:25:35.392Z,18.67
2016-06-09T05:26:37.410Z,18.72
2016-06-09T05:27:35.538Z,18.84
2016-06-09T05:28:35.759Z,18.77
2016-06-09T05:29:35.607Z,18.8
2016-06-09T05:30:35.672Z,18.83
2016-06-09T05:31:36.285Z,18.77
2016-06-09T05:32:35.678Z,18.83
2016-06-09T05:33:35.806Z,18.84
2016-06-09T05:34:36.715Z,18.82
2016-06-09T05:35:35.954Z,18.8
2016-06-09T05:36:35.971Z,18.77
2016-06-09T05:37:36.678Z,18.79
2016-06-09T05:38:36.352Z,18.8
2016-06-09T05:39:37.778Z,18.72
2016-06-09T05:40:36.047Z,18.83
2016-06-09T05:41:37.019Z,18.82
2016-06-09T05:42:36.162Z,18.84
2016-06-09T05:43:36.164Z,18.84
2016-06-09T05:44:36.200Z,18.9
2016-06-09T05:45:36.264Z,18.94
2016-06-09T05:46:36.268Z,19.1
2016-06-09T05:47:36.302Z,19.13
2016-06-09T05:48:36.352Z,19.15
2016-06-09T05:49:36.777Z,19.21
2016-06-09T05:50:37.077Z,19.2
2016-06-09T05:51:36.689Z,19.24
2016-06-09T05:52:37.380Z,19.15
2016-06-09T05:53:36.586Z,19.28
2016-06-09T05:54:37.621Z,19.35
2016-06-09T05:55:36.655Z,19.17
2016-06-09T05:56:37.423Z,19.29
2016-06-09T05:57:36.755Z,19.25
2016-06-09T05:58:37.430Z,19.29
2016-06-09T05:59:36.839Z,19.35
2016-06-09T06:00:36.858Z,19.33
2016-06-09T06:01:36.909Z,19.39
2016-06-09T06:02:37.817Z,19.47
2016-06-09T06:03:38.571Z,19.55
2016-06-09T06:04:36.948Z,19.63
2016-06-09T06:05:37.592Z,19.7
2016-06-09T06:06:40.688Z,19.79
2016-06-09T06:07:37.176Z,19.76
2016-06-09T06:08:37.210Z,19.88
2016-06-09T06:09:37.370Z,19.98
2016-06-09T06:10:37.576Z,19.94
2016-06-09T06:11:37.486Z,19.93
2016-06-09T06:12:37.442Z,19.95
2016-06-09T06:13:38.851Z,19.95
2016-06-09T06:14:38.042Z,19.93
2016-06-09T06:15:37.545Z,19.88
2016-06-09T06:16:39.126Z,19.86
2016-06-09T06:17:40.144Z,19.91
2016-06-09T06:18:37.648Z,19.78
2016-06-09T06:19:41.667Z,19.76
2016-06-09T06:20:37.826Z,19.78
2016-06-09T06:21:37.845Z,19.86
2016-06-09T06:22:37.832Z,19.98
2016-06-09T06:23:38.851Z,20.06
2016-06-09T06:24:37.901Z,20.24
2016-06-09T06:25:38.638Z,20.23
2016-06-09T06:26:38.000Z,20.23
2016-06-09T06:27:38.113Z,20.05
2016-06-09T06:28:40.850Z,20.09
2016-06-09T06:29:38.307Z,20.16
2016-06-09T06:30:38.247Z,20.21
2016-06-09T06:31:38.203Z,20.23
2016-06-09T06:32:38.284Z,20.06
2016-06-09T06:33:39.288Z,20.25
2016-06-09T06:34:38.931Z,20.24
2016-06-09T06:35:45.044Z,20.2
2016-06-09T06:36:38.563Z,20.27
2016-06-09T06:37:38.644Z,20.39
2016-06-09T06:38:52.725Z,20.49
2016-06-09T06:39:39.244Z,20.58
2016-06-09T06:40:38.793Z,20.64
2016-06-09T06:41:38.921Z,20.59
2016-06-09T06:42:42.268Z,20.59
2016-06-09T06:45:19.352Z,20.71
2016-06-09T06:46:22.340Z,20.74
2016-06-09T06:47:24.936Z,20.8
2016-06-09T06:48:20.081Z,20.74
2016-06-09T06:49:20.850Z,20.84
2016-06-09T06:50:19.384Z,20.87
2016-06-09T06:51:19.824Z,20.83
2016-06-09T06:52:39.924Z,20.86
2016-06-09T06:53:40.349Z,20.77
2016-06-09T06:54:39.899Z,20.72
2016-06-09T06:55:46.230Z,20.62
2016-06-09T06:56:41.249Z,20.58
2016-06-09T06:57:39.658Z,20.59
2016-06-09T06:58:41.099Z,20.43
2016-06-09T06:59:40.477Z,20.3
2016-06-09T07:00:40.339Z,20.27
2016-06-09T07:01:39.826Z,20.18
2016-06-09T07:02:40.846Z,20.02
2016-06-09T07:03:40.364Z,20.15
2016-06-09T07:04:40.429Z,20.09
2016-06-09T07:05:40.245Z,20.18
2016-06-09T07:06:41.373Z,20.2
2016-06-09T07:07:40.298Z,20.18
2016-06-09T07:08:41.176Z,20.25
2016-06-09T07:09:40.164Z,20.23
2016-06-09T07:10:40.261Z,20.09
2016-06-09T07:11:40.263Z,20.15
2016-06-09T07:12:40.345Z,20.23
2016-06-09T07:13:40.941Z,20.16
2016-06-09T07:14:40.367Z,20.03
2016-06-09T07:15:40.432Z,20
2016-06-09T07:16:40.498Z,19.87
2016-06-09T07:17:42.610Z,19.87
2016-06-09T07:18:41.379Z,19.72
2016-06-09T07:19:41.804Z,19.72
2016-06-09T07:20:40.838Z,19.72
2016-06-09T07:21:41.029Z,19.68
2016-06-09T07:22:40.735Z,19.63
2016-06-09T07:23:40.769Z,19.55
2016-06-09T07:24:40.913Z,19.6
2016-06-09T07:25:40.854Z,19.69
2016-06-09T07:26:40.967Z,19.84
2016-06-09T07:27:41.048Z,19.95
2016-06-09T07:28:41.612Z,19.97
2016-06-09T07:29:41.116Z,19.9
2016-06-09T07:30:41.151Z,19.73
2016-06-09T07:31:41.107Z,19.86
2016-06-09T07:32:41.172Z,19.91
2016-06-09T07:33:41.252Z,20.05
2016-06-09T07:34:41.256Z,20.03
2016-06-09T07:35:41.150Z,20.03
2016-06-09T07:36:44.169Z,20.03
2016-06-09T07:37:45.906Z,20
2016-06-09T07:38:46.550Z,19.66
2016-06-09T07:39:43.896Z,19.72
2016-06-09T07:40:41.821Z,19.87
2016-06-09T07:41:41.559Z,19.94
2016-06-09T07:42:45.922Z,20.12
2016-06-09T07:43:47.940Z,20.2
2016-06-09T07:44:44.522Z,20.27
2016-06-09T07:45:44.275Z,20.28
2016-06-09T07:46:45.121Z,20.39
2016-06-09T07:47:45.624Z,20.28
2016-06-09T07:48:43.456Z,20.27
2016-06-09T07:49:43.037Z,20.34
2016-06-09T07:50:42.196Z,20.42
2016-06-09T07:51:41.841Z,20.49
2016-06-09T07:52:42.139Z,20.43
2016-06-09T07:53:42.064Z,20.56
2016-06-09T07:54:42.114Z,20.56
2016-06-09T07:55:42.181Z,20.56
2016-06-09T07:56:42.215Z,20.5
2016-06-09T07:57:42.280Z,20.43
2016-06-09T07:58:42.345Z,20.38
2016-06-09T07:59:42.505Z,20.34
2016-06-09T08:00:42.524Z,20.27
2016-06-09T08:01:42.589Z,20.03
2016-06-09T08:02:44.670Z,19.8
2016-06-09T08:03:48.580Z,19.68
2016-06-09T08:04:45.567Z,19.66
2016-06-09T08:05:44.680Z,19.53
2016-06-09T08:06:44.839Z,19.38
2016-06-09T08:07:45.749Z,19.48
2016-06-09T08:08:47.064Z,19.46
2016-06-09T08:09:46.020Z,19.2
2016-06-09T08:10:45.742Z,18.95
2016-06-09T08:11:45.386Z,18.65
2016-06-09T08:12:45.669Z,18.4
2016-06-09T08:13:42.954Z,18.37
2016-06-09T08:14:43.238Z,18.58
2016-06-09T08:15:43.023Z,18.67
2016-06-09T08:16:43.198Z,19.14
2016-06-09T08:17:43.091Z,19.31
2016-06-09T08:18:43.188Z,19.58
2016-06-09T08:19:43.380Z,19.68
2016-06-09T08:20:43.319Z,19.83
2016-06-09T08:21:43.276Z,19.93
2016-06-09T08:22:43.325Z,20.12
2016-06-09T08:23:43.470Z,20.27
2016-06-09T08:24:43.444Z,20.33
2016-06-09T08:25:43.598Z,20.47
2016-06-09T08:26:43.675Z,20.58
2016-06-09T08:27:43.673Z,20.74
2016-06-09T08:28:43.736Z,20.81
2016-06-09T08:29:43.905Z,20.93
2016-06-09T08:30:43.923Z,21.05
2016-06-09T08:31:43.958Z,21.16
2016-06-09T08:32:44.007Z,21.26
2016-06-09T08:33:44.072Z,21.23
2016-06-09T08:34:44.168Z,21.34
2016-06-09T08:35:44.724Z,21.44
2016-06-09T08:36:44.217Z,21.5
2016-06-09T08:37:44.319Z,21.59
2016-06-09T08:38:44.327Z,21.53
2016-06-09T08:39:44.366Z,21.57
2016-06-09T08:40:45.012Z,21.63
2016-06-09T08:41:44.471Z,21.63
2016-06-09T08:42:45.616Z,21.61
2016-06-09T08:43:44.668Z,21.63
2016-06-09T08:44:44.610Z,21.76
2016-06-09T08:45:44.661Z,21.64
2016-06-09T08:46:44.774Z,21.75
2016-06-09T08:47:44.747Z,21.78
2016-06-09T08:48:44.845Z,21.76
2016-06-09T08:49:44.849Z,21.85
2016-06-09T08:50:44.727Z,22.02
2016-06-09T08:51:44.917Z,22.07
2016-06-09T08:52:44.827Z,22.23
2016-06-09T08:53:44.863Z,22.23
2016-06-09T08:54:44.897Z,22.23
2016-06-09T08:55:45.166Z,22.25
2016-06-09T08:56:45.215Z,22.25
2016-06-09T08:57:46.063Z,22.17
2016-06-09T08:58:46.675Z,22.14
2016-06-09T08:59:45.521Z,22.02
2016-06-09T09:00:46.587Z,21.92
2016-06-09T09:01:45.371Z,21.91
2016-06-09T09:02:45.405Z,21.83
2016-06-09T09:03:45.330Z,21.81
2016-06-09T09:04:45.506Z,21.69
2016-06-09T09:05:45.759Z,21.67
2016-06-09T09:06:46.778Z,21.67
2016-06-09T09:07:45.890Z,21.57
2016-06-09T09:08:45.674Z,21.38
2016-06-09T09:09:45.708Z,21.34
2016-06-09T09:10:45.806Z,21.36
2016-06-09T09:11:45.824Z,21.56
2016-06-09T09:12:45.922Z,21.66
2016-06-09T09:13:45.893Z,21.78
2016-06-09T09:14:45.803Z,21.9
2016-06-09T09:15:45.992Z,21.98
2016-06-09T09:16:48.262Z,22.04
2016-06-09T09:17:46.702Z,22.2
2016-06-09T09:18:46.299Z,22.22
2016-06-09T09:19:46.271Z,22.34
2016-06-09T09:20:46.336Z,22.47
2016-06-09T09:21:46.761Z,22.54
2016-06-09T09:22:46.498Z,22.53
2016-06-09T09:23:47.705Z,22.6
2016-06-09T09:24:46.458Z,22.47
2016-06-09T09:25:46.429Z,22.37
2016-06-09T09:26:46.557Z,22.27
2016-06-09T09:27:47.077Z,22.41
2016-06-09T09:28:48.173Z,22.43
2016-06-09T09:29:46.519Z,22.43
2016-06-09T09:30:47.430Z,22.56
2016-06-09T09:31:47.135Z,22.84
2016-06-09T09:32:47.060Z,22.92
2016-06-09T09:33:46.814Z,23.08
2016-06-09T09:34:46.848Z,23.24
2016-06-09T09:35:47.210Z,23.29
2016-06-09T09:36:46.932Z,23.27
2016-06-09T09:37:48.389Z,23.45
2016-06-09T09:38:47.047Z,23.45
2016-06-09T09:39:47.050Z,23.46
2016-06-09T09:40:47.538Z,23.55
2016-06-09T09:41:47.479Z,23.49
2016-06-09T09:42:47.372Z,23.42
2016-06-09T09:43:48.892Z,23.23
2016-06-09T09:44:47.754Z,23.04
2016-06-09T09:45:47.382Z,22.97
2016-06-09T09:46:51.901Z,22.75
2016-06-09T09:47:47.418Z,22.44
2016-06-09T09:48:47.766Z,22.01
2016-06-09T09:49:47.597Z,21.71
2016-06-09T09:50:47.757Z,21.63
2016-06-09T09:51:47.620Z,21.66
2016-06-09T09:52:47.747Z,21.81
2016-06-09T09:53:48.015Z,21.82
2016-06-09T09:54:47.847Z,21.9
2016-06-09T09:55:48.007Z,21.48
2016-06-09T09:56:47.915Z,21.16
2016-06-09T09:57:47.903Z,21.06
2016-06-09T09:58:48.952Z,21.04
2016-06-09T09:59:48.050Z,20.86
2016-06-09T10:00:48.006Z,20.62
2016-06-09T10:01:48.400Z,20.61
2016-06-09T10:02:48.168Z,20.51
2016-06-09T10:03:48.171Z,20.41
2016-06-09T10:04:48.221Z,20.46
2016-06-09T10:05:48.443Z,20.53
2016-06-09T10:06:48.633Z,20.74
2016-06-09T10:07:48.371Z,20.89
2016-06-09T10:08:48.515Z,20.9
2016-06-09T10:09:48.439Z,20.79
2016-06-09T10:10:48.646Z,20.87
2016-06-09T10:11:48.556Z,21.08
2016-06-09T10:12:48.559Z,21.11
2016-06-09T10:13:50.593Z,21.21
2016-06-09T10:14:48.658Z,21.5
2016-06-09T10:15:48.958Z,21.64
2016-06-09T10:16:48.977Z,21.83
2016-06-09T10:17:48.996Z,22.07
2016-06-09T10:18:48.983Z,22.22
2016-06-09T10:19:49.455Z,22.49
2016-06-09T10:20:50.349Z,22.57
2016-06-09T10:21:49.242Z,22.67
2016-06-09T10:22:50.043Z,22.82
2016-06-09T10:23:49.218Z,23.01
2016-06-09T10:24:49.157Z,23.08
2016-06-09T10:25:49.457Z,23.22
2016-06-09T10:26:49.180Z,23.32
2016-06-09T10:27:50.152Z,23.4
2016-06-09T10:28:53.342Z,23.22
2016-06-09T10:29:49.392Z,23.22
2016-06-09T10:30:49.724Z,23.23
2016-06-09T10:31:49.492Z,23.08
2016-06-09T10:32:49.620Z,22.72
2016-06-09T10:33:51.482Z,22.68
2016-06-09T10:34:49.594Z,22.34
2016-06-09T10:35:50.817Z,21.97
2016-06-09T10:36:49.882Z,21.97
2016-06-09T10:37:49.728Z,22.04
2016-06-09T10:38:49.747Z,21.99
2016-06-09T10:39:49.829Z,22.04
2016-06-09T10:40:49.848Z,22.12
2016-06-09T10:41:49.898Z,21.94
2016-06-09T10:42:49.963Z,21.85
2016-06-09T10:43:50.763Z,21.36
2016-06-09T10:44:50.032Z,21.01
2016-06-09T10:45:50.067Z,20.9
2016-06-09T10:46:50.147Z,20.93
2016-06-09T10:47:50.181Z,21.04
2016-06-09T10:48:50.388Z,21.08
2016-06-09T10:49:50.078Z,21.3
2016-06-09T10:50:50.285Z,21.32
2016-06-09T10:51:50.632Z,21.45
2016-06-09T10:52:50.369Z,21.51
2016-06-09T10:53:50.435Z,21.45
2016-06-09T10:54:50.499Z,21.45
2016-06-09T10:55:50.503Z,21.48
2016-06-09T10:56:50.991Z,21.69
2016-06-09T10:57:50.650Z,21.92
2016-06-09T10:58:50.668Z,22.13
2016-06-09T10:59:51.766Z,22.35
2016-06-09T11:00:50.753Z,22.46
2016-06-09T11:02:07.507Z,22.62
2016-06-09T11:02:50.712Z,22.57
2016-06-09T11:03:50.888Z,22.67
2016-06-09T11:04:50.922Z,22.82
2016-06-09T11:05:51.111Z,22.93
2016-06-09T11:06:52.662Z,23.09
2016-06-09T11:07:51.087Z,23.17
2016-06-09T11:08:51.512Z,23.22
2016-06-09T11:09:51.609Z,23.31
2016-06-09T11:10:51.471Z,23.22
2016-06-09T11:11:51.302Z,23.22
2016-06-09T11:12:53.102Z,23.35
2016-06-09T11:13:52.136Z,23.39
2016-06-09T11:14:51.764Z,23.52
2016-06-09T11:15:51.939Z,23.79
2016-06-09T11:16:51.489Z,24.26
2016-06-09T11:17:51.539Z,24.59
2016-06-09T11:18:51.605Z,25.06
2016-06-09T11:19:51.639Z,25.27
2016-06-09T11:20:52.549Z,25.3
2016-06-09T11:21:51.708Z,25.57
2016-06-09T11:22:51.774Z,25.74
2016-06-09T11:23:51.808Z,26.05
2016-06-09T11:24:51.842Z,26.32
2016-06-09T11:25:51.908Z,26.86
2016-06-09T11:26:51.958Z,27.53
2016-06-09T11:27:52.133Z,27.94
2016-06-09T11:28:52.292Z,27.82
2016-06-09T11:29:52.124Z,27.84
2016-06-09T11:30:52.204Z,27.58
2016-06-09T11:31:52.441Z,27.46
2016-06-09T11:32:52.242Z,27.28
2016-06-09T11:33:52.323Z,27.53
2016-06-09T11:34:52.341Z,27.73
2016-06-09T11:35:52.376Z,27.98
2016-06-09T11:36:52.442Z,27.99
2016-06-09T11:37:52.476Z,27.62
2016-06-09T11:38:52.995Z,27.31
2016-06-09T11:39:52.560Z,27.26
2016-06-09T11:40:52.642Z,27.32
2016-06-09T11:41:52.660Z,27.36
2016-06-09T11:42:52.742Z,27.54
2016-06-09T11:43:52.948Z,27.86
2016-06-09T11:44:52.842Z,28.04
2016-06-09T11:45:52.876Z,28.35
2016-06-09T11:46:53.035Z,28.6
2016-06-09T11:47:52.991Z,28.72
2016-06-09T11:48:53.009Z,28.7
2016-06-09T11:49:53.060Z,28.78
2016-06-09T11:50:53.813Z,28.9
2016-06-09T11:51:53.378Z,28.96
2016-06-09T11:52:53.241Z,28.69
2016-06-09T11:53:53.276Z,28.65
2016-06-09T11:54:53.356Z,28.53
2016-06-09T11:55:55.829Z,28.53
2016-06-09T11:56:53.456Z,28.4
2016-06-09T11:57:53.522Z,28.26
2016-06-09T11:58:53.541Z,28.26
2016-06-09T11:59:53.559Z,28.29
2016-06-09T12:00:53.625Z,28.33
2016-06-09T12:01:53.831Z,28.38
2016-06-09T12:02:53.725Z,28.4
2016-06-09T12:03:53.775Z,28.41
2016-06-09T12:04:53.903Z,28.48
2016-06-09T12:05:54.093Z,28.46
2016-06-09T12:06:54.409Z,28.6
2016-06-09T12:07:54.146Z,29
2016-06-09T12:08:55.212Z,29.45
2016-06-09T12:09:55.215Z,29.86
2016-06-09T12:10:54.375Z,29.94
2016-06-09T12:11:54.236Z,29.93
2016-06-09T12:12:54.380Z,30.08
2016-06-09T12:13:54.445Z,30.29
2016-06-09T12:14:54.387Z,30.5
2016-06-09T12:15:54.437Z,30.53
2016-06-09T12:16:54.643Z,30.54
2016-06-09T12:17:54.958Z,30.37
2016-06-09T12:18:54.102Z,30.08
2016-06-09T12:19:54.933Z,29.84
2016-06-09T12:20:55.670Z,29.62
2016-06-09T12:21:54.767Z,29.41
2016-06-09T12:22:54.801Z,29.33
2016-06-09T12:23:56.040Z,29.11
2016-06-09T12:24:55.729Z,29.15
2016-06-09T12:25:54.936Z,29.2
2016-06-09T12:26:55.033Z,29.2
2016-06-09T12:27:55.066Z,29.13
2016-06-09T12:28:55.352Z,29.01
2016-06-09T12:29:55.167Z,28.95
2016-06-09T12:30:55.295Z,28.91
2016-06-09T12:31:55.298Z,28.88
2016-06-09T12:32:55.317Z,28.73
2016-06-09T12:33:55.304Z,28.69
2016-06-09T12:34:55.385Z,28.6
2016-06-09T12:35:56.186Z,28.66
2016-06-09T12:36:55.642Z,28.54
2016-06-09T12:37:55.505Z,28.47
2016-06-09T12:38:55.554Z,28.47
2016-06-09T12:39:56.572Z,28.43
2016-06-09T12:40:55.639Z,28.11
2016-06-09T12:41:55.673Z,27.96
2016-06-09T12:42:57.035Z,27.91
2016-06-09T12:43:55.866Z,27.76
2016-06-09T12:44:55.869Z,27.67
2016-06-09T12:45:57.107Z,27.69
2016-06-09T12:46:56.454Z,27.62
2016-06-09T12:47:56.300Z,27.59
2016-06-09T12:48:56.210Z,27.61
2016-06-09T12:49:56.198Z,27.77
2016-06-09T12:50:56.935Z,27.8
2016-06-09T12:51:56.562Z,27.89
2016-06-09T12:52:56.300Z,28.01
2016-06-09T12:53:57.053Z,28.06
2016-06-09T12:54:56.510Z,28.25
2016-06-09T12:55:56.215Z,28.32
2016-06-09T12:56:56.453Z,28.75
2016-06-09T12:57:57.613Z,29.34